createdAt,value
2022-08-27T00:00:36.828Z,9.719643
2022-08-27T00:01:36.586Z,9.719638
2022-08-27T00:02:36.525Z,9.719674
2022-08-27T00:03:36.515Z,9.719664
2022-08-27T00:04:36.562Z,9.719640
2022-08-27T00:05:36.503Z,9.719651
2022-08-27T00:06:36.762Z,9.719669
2022-08-27T00:07:36.482Z,9.719642
2022-08-27T00:08:36.464Z,9.719649
2022-08-27T00:09:36.459Z,9.719668
2022-08-27T00:10:36.442Z,9.719664
2022-08-27T00:11:36.456Z,9.719666
2022-08-27T00:12:36.426Z,9.719662
2022-08-27T00:13:36.453Z,9.719662
2022-08-27T00:14:36.403Z,9.719661
2022-08-27T00:15:36.427Z,9.719684
2022-08-27T00:16:36.443Z,9.719711
2022-08-27T00:17:36.374Z,9.719657
2022-08-27T00:18:36.361Z,9.719676
2022-08-27T00:19:36.364Z,9.719674
2022-08-27T00:20:36.349Z,9.719682
2022-08-27T00:21:36.353Z,9.719641
2022-08-27T00:22:36.329Z,9.719641
2022-08-27T00:23:36.325Z,9.719648
2022-08-27T00:24:36.309Z,9.719592
2022-08-27T00:25:37.305Z,9.719619
2022-08-27T00:26:40.173Z,9.719630
2022-08-27T00:27:37.282Z,9.719615
2022-08-27T00:28:36.454Z,9.719637
2022-08-27T00:29:36.260Z,9.719639
2022-08-27T00:30:36.259Z,9.719600
2022-08-27T00:31:36.341Z,9.719637
2022-08-27T00:32:36.229Z,9.719706
2022-08-27T00:33:36.222Z,9.719703
2022-08-27T00:34:36.210Z,9.719737
2022-08-27T00:35:36.206Z,9.719707
2022-08-27T00:36:36.200Z,9.719672
2022-08-27T00:37:36.177Z,9.719625
2022-08-27T00:38:36.170Z,9.719646
2022-08-27T00:39:36.163Z,9.719647
2022-08-27T00:40:36.189Z,9.719647
2022-08-27T00:41:36.179Z,9.719625
2022-08-27T00:42:36.129Z,9.719625
2022-08-27T00:43:36.119Z,9.719604
2022-08-27T00:44:36.105Z,9.719604
2022-08-27T00:45:36.119Z,9.719619
2022-08-27T00:46:36.126Z,9.719626
2022-08-27T00:47:36.086Z,9.719616
2022-08-27T00:48:36.064Z,9.719625
2022-08-27T00:49:36.065Z,9.719629
2022-08-27T00:50:36.046Z,9.719620
2022-08-27T00:51:36.036Z,9.719612
2022-08-27T00:52:36.041Z,9.719628
2022-08-27T00:53:36.017Z,9.719642
2022-08-27T00:54:36.011Z,9.719636
2022-08-27T00:55:35.993Z,9.719632
2022-08-27T00:56:36.120Z,9.719625
2022-08-27T00:57:35.996Z,9.719636
2022-08-27T00:58:35.971Z,9.719629
2022-08-27T00:59:35.960Z,9.719633
2022-08-27T01:00:35.983Z,9.719634
2022-08-27T01:01:36.073Z,9.719647
2022-08-27T01:02:36.023Z,9.719660
2022-08-27T01:03:35.923Z,9.719704
2022-08-27T01:04:35.916Z,9.719650
2022-08-27T01:05:35.904Z,9.719644
2022-08-27T01:06:35.896Z,9.719635
2022-08-27T01:07:35.894Z,9.719647
2022-08-27T01:08:35.875Z,9.719687
2022-08-27T01:09:35.862Z,9.719610
2022-08-27T01:10:35.861Z,9.719570
2022-08-27T01:11:35.853Z,9.719655
2022-08-27T01:12:36.054Z,9.719715
2022-08-27T01:13:54.050Z,9.719707
2022-08-27T01:14:36.824Z,9.719664
2022-08-27T01:15:35.814Z,9.719723
2022-08-27T01:16:35.877Z,9.719691
2022-08-27T01:17:35.797Z,9.719671
2022-08-27T01:18:35.801Z,9.719663
2022-08-27T01:19:35.771Z,9.719646
2022-08-27T01:20:35.767Z,9.719630
2022-08-27T01:21:35.867Z,9.719666
2022-08-27T01:22:35.768Z,9.719669
2022-08-27T01:23:35.737Z,9.719644
2022-08-27T01:24:35.841Z,9.719622
2022-08-27T01:25:35.717Z,9.719650
2022-08-27T01:26:35.710Z,9.719653
2022-08-27T01:27:35.720Z,9.719647
2022-08-27T01:28:37.555Z,9.719683
2022-08-27T01:29:35.680Z,9.719652
2022-08-27T01:30:35.668Z,9.719675
2022-08-27T01:31:35.689Z,9.719633
2022-08-27T01:32:35.691Z,9.719614
2022-08-27T01:33:35.637Z,9.719665
2022-08-27T01:34:35.634Z,9.719674
2022-08-27T01:35:35.622Z,9.719645
2022-08-27T01:36:35.611Z,9.719657
2022-08-27T01:37:35.617Z,9.719597
2022-08-27T01:38:35.591Z,9.719644
2022-08-27T01:39:35.577Z,9.719659
2022-08-27T01:40:35.609Z,9.719625
2022-08-27T01:41:35.558Z,9.719593
2022-08-27T01:42:35.559Z,9.719604
2022-08-27T01:43:35.729Z,9.719647
2022-08-27T01:44:35.526Z,9.719565
2022-08-27T01:45:35.522Z,9.719530
2022-08-27T01:46:35.528Z,9.719566
2022-08-27T01:47:35.515Z,9.719529
2022-08-27T01:48:35.724Z,9.719533
2022-08-27T01:49:35.490Z,9.719603
2022-08-27T01:50:35.480Z,9.719571
2022-08-27T01:51:35.463Z,9.719564
2022-08-27T01:52:35.473Z,9.719530
2022-08-27T01:53:35.447Z,9.719579
2022-08-27T01:54:35.436Z,9.719626
2022-08-27T01:55:35.421Z,9.719563
2022-08-27T01:56:35.416Z,9.719601
2022-08-27T01:57:35.416Z,9.719632
2022-08-27T01:58:35.402Z,9.719637
2022-08-27T01:59:39.668Z,9.719604
2022-08-27T02:00:35.409Z,9.719612
2022-08-27T02:01:35.533Z,9.719611
2022-08-27T02:02:35.351Z,9.719653
2022-08-27T02:03:35.342Z,9.719633
2022-08-27T02:04:35.334Z,9.719603
2022-08-27T02:05:43.814Z,9.719602
2022-08-27T02:06:36.330Z,9.719579
2022-08-27T02:07:35.306Z,9.719579
2022-08-27T02:08:35.301Z,9.719542
2022-08-27T02:09:35.287Z,9.719487
2022-08-27T02:10:35.281Z,9.719504
2022-08-27T02:11:35.277Z,9.719502
2022-08-27T02:12:36.258Z,9.719476
2022-08-27T02:13:35.244Z,9.719530
2022-08-27T02:14:35.238Z,9.719411
2022-08-27T02:15:35.231Z,9.719533
2022-08-27T02:16:35.285Z,9.719537
2022-08-27T02:17:36.381Z,9.719534
2022-08-27T02:18:35.236Z,9.719573
2022-08-27T02:19:35.191Z,9.719542
2022-08-27T02:20:35.188Z,9.719545
2022-08-27T02:21:35.182Z,9.719541
2022-08-27T02:22:35.165Z,9.719397
2022-08-27T02:23:35.153Z,9.719350
2022-08-27T02:24:35.145Z,9.719442
2022-08-27T02:25:35.130Z,9.719559
2022-08-27T02:26:35.138Z,9.719561
2022-08-27T02:27:35.110Z,9.719591
2022-08-27T02:28:35.104Z,9.719599
2022-08-27T02:29:35.094Z,9.719604
2022-08-27T02:30:35.091Z,9.719567
2022-08-27T02:31:35.122Z,9.719553
2022-08-27T02:32:35.063Z,9.719559
2022-08-27T02:33:35.051Z,9.719586
2022-08-27T02:34:35.046Z,9.719555
2022-08-27T02:35:35.263Z,9.719568
2022-08-27T02:36:35.040Z,9.719548
2022-08-27T02:37:35.012Z,9.719542
2022-08-27T02:38:35.007Z,9.719563
2022-08-27T02:39:34.995Z,9.719586
2022-08-27T02:40:35.054Z,9.719615
2022-08-27T02:41:34.991Z,9.719659
2022-08-27T02:42:34.967Z,9.719618
2022-08-27T02:43:34.955Z,9.719709
2022-08-27T02:44:34.947Z,9.719655
2022-08-27T02:45:35.527Z,9.719641
2022-08-27T02:46:35.169Z,9.719683
2022-08-27T02:47:34.920Z,9.719654
2022-08-27T02:48:34.912Z,9.719651
2022-08-27T02:49:34.893Z,9.719639
2022-08-27T02:50:34.891Z,9.719641
2022-08-27T02:51:34.890Z,9.719595
2022-08-27T02:52:34.880Z,9.719602
2022-08-27T02:53:34.858Z,9.719583
2022-08-27T02:54:34.853Z,9.719509
2022-08-27T02:55:34.843Z,9.719525
2022-08-27T02:56:34.845Z,9.719651
2022-08-27T02:57:36.625Z,9.719629
2022-08-27T02:58:34.833Z,9.719680
2022-08-27T02:59:34.799Z,9.719657
2022-08-27T03:00:34.794Z,9.719695
2022-08-27T03:01:34.865Z,9.719702
2022-08-27T03:02:34.915Z,9.719707
2022-08-27T03:03:34.763Z,9.719675
2022-08-27T03:04:34.957Z,9.719639
2022-08-27T03:05:34.744Z,9.719617
2022-08-27T03:06:34.750Z,9.719674
2022-08-27T03:07:34.953Z,9.719613
2022-08-27T03:08:52.018Z,9.719614
2022-08-27T03:09:35.734Z,9.719613
2022-08-27T03:10:34.696Z,9.719584
2022-08-27T03:11:34.699Z,9.719614
2022-08-27T03:12:34.880Z,9.719625
2022-08-27T03:13:34.666Z,9.719617
2022-08-27T03:14:34.798Z,9.719589
2022-08-27T03:15:34.649Z,9.719586
2022-08-27T03:16:34.657Z,9.719663
2022-08-27T03:17:34.632Z,9.719651
2022-08-27T03:18:34.625Z,9.719677
2022-08-27T03:19:34.612Z,9.719682
2022-08-27T03:20:34.604Z,9.719681
2022-08-27T03:21:34.609Z,9.719684
2022-08-27T03:22:34.588Z,9.719668
2022-08-27T03:23:34.782Z,9.719664
2022-08-27T03:24:34.567Z,9.719670
2022-08-27T03:25:34.639Z,9.719632
2022-08-27T03:26:34.562Z,9.719590
2022-08-27T03:27:34.531Z,9.719597
2022-08-27T03:28:34.527Z,9.719595
2022-08-27T03:29:34.515Z,9.719633
2022-08-27T03:30:34.507Z,9.719644
2022-08-27T03:31:34.535Z,9.719647
2022-08-27T03:32:34.491Z,9.719689
2022-08-27T03:33:34.473Z,9.719683
2022-08-27T03:34:34.461Z,9.719688
2022-08-27T03:35:34.466Z,9.719668
2022-08-27T03:36:34.465Z,9.719641
2022-08-27T03:37:34.437Z,9.719604
2022-08-27T03:38:34.432Z,9.719615
2022-08-27T03:39:34.415Z,9.719620
2022-08-27T03:40:34.675Z,9.719621
2022-08-27T03:41:45.456Z,9.719633
2022-08-27T03:42:35.390Z,9.719622
2022-08-27T03:43:34.388Z,9.719605
2022-08-27T03:44:34.533Z,9.719542
2022-08-27T03:45:48.440Z,9.719667
2022-08-27T03:46:35.385Z,9.719718
2022-08-27T03:47:34.341Z,9.719746
2022-08-27T03:48:34.331Z,9.719616
2022-08-27T03:49:34.315Z,9.719683
2022-08-27T03:50:34.313Z,9.719681
2022-08-27T03:51:34.315Z,9.719640
2022-08-27T03:52:34.293Z,9.719636
2022-08-27T03:53:34.284Z,9.719627
2022-08-27T03:54:34.277Z,9.719650
2022-08-27T03:55:34.258Z,9.719528
2022-08-27T03:56:34.377Z,9.719585
2022-08-27T03:57:34.244Z,9.719664
2022-08-27T03:58:34.255Z,9.719689
2022-08-27T03:59:34.226Z,9.719661
2022-08-27T04:00:34.220Z,9.719658
2022-08-27T04:01:34.339Z,9.719671
2022-08-27T04:02:34.222Z,9.719702
2022-08-27T04:03:34.185Z,9.719653
2022-08-27T04:04:34.179Z,9.719662
2022-08-27T04:05:34.168Z,9.719637
2022-08-27T04:06:34.356Z,9.719664
2022-08-27T04:07:34.161Z,9.719639
2022-08-27T04:08:34.138Z,9.719654
2022-08-27T04:09:34.128Z,9.719644
2022-08-27T04:10:34.980Z,9.719645
2022-08-27T04:11:34.209Z,9.719632
2022-08-27T04:12:34.112Z,9.719666
2022-08-27T04:13:34.089Z,9.719723
2022-08-27T04:14:34.140Z,9.719666
2022-08-27T04:15:34.066Z,9.719642
2022-08-27T04:16:34.083Z,9.719646
2022-08-27T04:17:34.061Z,9.719640
2022-08-27T04:18:34.035Z,9.719588
2022-08-27T04:19:34.023Z,9.719635
2022-08-27T04:20:35.696Z,9.719560
2022-08-27T04:21:34.043Z,9.719722
2022-08-27T04:22:34.011Z,9.719648
2022-08-27T04:23:34.204Z,9.719690
2022-08-27T04:24:33.975Z,9.719812
2022-08-27T04:25:33.966Z,9.719460
2022-08-27T04:26:33.960Z,9.719627
2022-08-27T04:27:33.962Z,9.719738
2022-08-27T04:28:38.246Z,9.719706
2022-08-27T04:29:33.941Z,9.719518
2022-08-27T04:30:33.924Z,9.719406
2022-08-27T04:31:33.942Z,9.719830
2022-08-27T04:32:33.921Z,9.719599
2022-08-27T04:33:33.890Z,9.719584
2022-08-27T04:34:33.878Z,9.719565
2022-08-27T04:35:33.871Z,9.719579
2022-08-27T04:36:33.865Z,9.719634
2022-08-27T04:37:33.867Z,9.719641
2022-08-27T04:38:33.847Z,9.719647
2022-08-27T04:39:33.830Z,9.719659
2022-08-27T04:40:33.937Z,9.719595
2022-08-27T04:41:33.810Z,9.719629
2022-08-27T04:42:33.825Z,9.719714
2022-08-27T04:43:33.798Z,9.719739
2022-08-27T04:44:33.793Z,9.719680
2022-08-27T04:45:33.811Z,9.719639
2022-08-27T04:46:33.865Z,9.719688
2022-08-27T04:47:33.780Z,9.719645
2022-08-27T04:48:33.756Z,9.719685
2022-08-27T04:49:33.757Z,9.719594
2022-08-27T04:50:33.728Z,9.719682
2022-08-27T04:51:33.720Z,9.719694
2022-08-27T04:52:33.725Z,9.719646
2022-08-27T04:53:34.699Z,9.719711
2022-08-27T04:54:33.693Z,9.719693
2022-08-27T04:55:33.753Z,9.719627
2022-08-27T04:56:33.679Z,9.719608
2022-08-27T04:57:33.675Z,9.719742
2022-08-27T04:58:33.650Z,9.719676
2022-08-27T04:59:33.643Z,9.719633
2022-08-27T05:00:33.851Z,9.719672
2022-08-27T05:01:33.673Z,9.719608
2022-08-27T05:02:33.621Z,9.719619
2022-08-27T05:03:33.601Z,9.719623
2022-08-27T05:04:33.879Z,9.719620
2022-08-27T05:05:33.621Z,9.719631
2022-08-27T05:06:33.568Z,9.719612
2022-08-27T05:07:33.573Z,9.719605
2022-08-27T05:08:33.550Z,9.719563
2022-08-27T05:09:33.536Z,9.719485
2022-08-27T05:10:33.533Z,9.719524
2022-08-27T05:11:33.525Z,9.719540
2022-08-27T05:12:33.529Z,9.719549
2022-08-27T05:13:33.515Z,9.719625
2022-08-27T05:14:33.505Z,9.719632
2022-08-27T05:15:33.563Z,9.719608
2022-08-27T05:16:33.482Z,9.719578
2022-08-27T05:17:33.477Z,9.719624
2022-08-27T05:18:37.613Z,9.719669
2022-08-27T05:19:34.448Z,9.719641
2022-08-27T05:20:33.541Z,9.719644
2022-08-27T05:21:33.443Z,9.719627
2022-08-27T05:22:33.431Z,9.719627
2022-08-27T05:23:33.416Z,9.719605
2022-08-27T05:24:33.396Z,9.719622
2022-08-27T05:25:33.431Z,9.719633
2022-08-27T05:26:33.564Z,9.719590
2022-08-27T05:27:33.372Z,9.719606
2022-08-27T05:28:33.375Z,9.719630
2022-08-27T05:29:33.355Z,9.719650
2022-08-27T05:30:33.347Z,9.719650
2022-08-27T05:31:33.381Z,9.719655
2022-08-27T05:32:33.334Z,9.719649
2022-08-27T05:33:33.319Z,9.719637
2022-08-27T05:34:33.313Z,9.719605
2022-08-27T05:35:33.293Z,9.719578
2022-08-27T05:36:33.283Z,9.719600
2022-08-27T05:37:33.291Z,9.719585
2022-08-27T05:38:33.263Z,9.719619
2022-08-27T05:39:33.262Z,9.719664
2022-08-27T05:40:33.267Z,9.719624
2022-08-27T05:41:34.170Z,9.719631
2022-08-27T05:42:33.241Z,9.719626
2022-08-27T05:43:33.462Z,9.719670
2022-08-27T05:44:41.553Z,9.719606
2022-08-27T05:45:34.201Z,9.719584
2022-08-27T05:46:33.250Z,9.719620
2022-08-27T05:47:33.200Z,9.719615
2022-08-27T05:48:33.172Z,9.719601
2022-08-27T05:49:33.167Z,9.719594
2022-08-27T05:50:33.151Z,9.719593
2022-08-27T05:51:33.142Z,9.719616
2022-08-27T05:52:33.129Z,9.719605
2022-08-27T05:53:33.140Z,9.719644
2022-08-27T05:54:33.116Z,9.719652
2022-08-27T05:55:33.328Z,9.719620
2022-08-27T05:56:33.095Z,9.719648
2022-08-27T05:57:33.089Z,9.719609
2022-08-27T05:58:33.090Z,9.719620
2022-08-27T05:59:34.939Z,9.719602
2022-08-27T06:00:33.058Z,9.719531
2022-08-27T06:01:33.054Z,9.719604
2022-08-27T06:02:33.084Z,9.719477
2022-08-27T06:03:33.285Z,9.719528
2022-08-27T06:04:33.037Z,9.719506
2022-08-27T06:05:33.043Z,9.719547
2022-08-27T06:06:33.004Z,9.719538
2022-08-27T06:07:32.994Z,9.719524
2022-08-27T06:08:32.990Z,9.719547
2022-08-27T06:09:32.968Z,9.719563
2022-08-27T06:10:32.956Z,9.719543
2022-08-27T06:11:32.955Z,9.719509
2022-08-27T06:12:32.941Z,9.719525
2022-08-27T06:13:33.211Z,9.719594
2022-08-27T06:14:32.966Z,9.719624
2022-08-27T06:15:32.936Z,9.719548
2022-08-27T06:16:32.895Z,9.719566
2022-08-27T06:17:32.896Z,9.719603
2022-08-27T06:18:32.899Z,9.719574
2022-08-27T06:19:32.873Z,9.719568
2022-08-27T06:20:32.864Z,9.719618
2022-08-27T06:21:32.860Z,9.719578
2022-08-27T06:22:33.021Z,9.719491
2022-08-27T06:23:32.851Z,9.719530
2022-08-27T06:24:32.825Z,9.719508
2022-08-27T06:25:32.810Z,9.719490
2022-08-27T06:26:32.804Z,9.719476
2022-08-27T06:27:32.797Z,9.719501
2022-08-27T06:28:32.795Z,9.719525
2022-08-27T06:29:32.777Z,9.719565
2022-08-27T06:30:32.760Z,9.719574
2022-08-27T06:31:32.786Z,9.719572
2022-08-27T06:32:32.741Z,9.719557
2022-08-27T06:33:33.020Z,9.719565
2022-08-27T06:34:32.801Z,9.719938
2022-08-27T06:35:34.086Z,9.719993
2022-08-27T06:36:32.702Z,9.719377
2022-08-27T06:37:32.702Z,9.719347
2022-08-27T06:38:32.699Z,9.719587
2022-08-27T06:39:32.686Z,9.719596
2022-08-27T06:40:32.722Z,9.719586
2022-08-27T06:41:32.656Z,9.719563
2022-08-27T06:42:32.645Z,9.719584
2022-08-27T06:43:32.659Z,9.719577
2022-08-27T06:44:32.618Z,9.719560
2022-08-27T06:45:32.728Z,9.719580
2022-08-27T06:46:32.726Z,9.719567
2022-08-27T06:47:32.600Z,9.719586
2022-08-27T06:48:32.600Z,9.719614
2022-08-27T06:49:32.579Z,9.719599
2022-08-27T06:50:32.566Z,9.719586
2022-08-27T06:51:32.561Z,9.719571
2022-08-27T06:52:32.549Z,9.719544
2022-08-27T06:53:32.554Z,9.719537
2022-08-27T06:54:32.528Z,9.719559
2022-08-27T06:55:36.748Z,9.719533
2022-08-27T06:56:32.518Z,9.719537
2022-08-27T06:57:32.508Z,9.719551
2022-08-27T06:58:32.505Z,9.719567
2022-08-27T06:59:32.482Z,9.719567
2022-08-27T07:00:32.470Z,9.719579
2022-08-27T07:01:32.526Z,9.719592
2022-08-27T07:02:32.525Z,9.719559
2022-08-27T07:03:32.458Z,9.719612
2022-08-27T07:04:32.989Z,9.719647
2022-08-27T07:05:32.429Z,9.719565
2022-08-27T07:06:32.414Z,9.719710
2022-08-27T07:07:38.160Z,9.719572
2022-08-27T07:08:33.410Z,9.719542
2022-08-27T07:09:32.418Z,9.719528
2022-08-27T07:10:32.376Z,9.719492
2022-08-27T07:11:32.371Z,9.719483
2022-08-27T07:12:32.353Z,9.719565
2022-08-27T07:13:32.364Z,9.719554
2022-08-27T07:14:37.094Z,9.719534
2022-08-27T07:15:33.367Z,9.719556
2022-08-27T07:16:32.327Z,9.719570
2022-08-27T07:17:32.315Z,9.719497
2022-08-27T07:18:32.317Z,9.719555
2022-08-27T07:19:32.363Z,9.719533
2022-08-27T07:20:32.282Z,9.719674
2022-08-27T07:21:32.293Z,9.719683
2022-08-27T07:22:32.257Z,9.719400
2022-08-27T07:23:32.270Z,9.719468
2022-08-27T07:24:32.246Z,9.719534
2022-08-27T07:25:32.237Z,9.719522
2022-08-27T07:26:32.222Z,9.719472
2022-08-27T07:27:32.217Z,9.719419
2022-08-27T07:28:32.211Z,9.719422
2022-08-27T07:29:32.476Z,9.719464
2022-08-27T07:30:32.209Z,9.719469
2022-08-27T07:31:32.174Z,9.719472
2022-08-27T07:32:32.167Z,9.719512
2022-08-27T07:33:32.182Z,9.719502
2022-08-27T07:34:32.149Z,9.719597
2022-08-27T07:35:32.140Z,9.719600
2022-08-27T07:36:32.125Z,9.719586
2022-08-27T07:37:32.592Z,9.719567
2022-08-27T07:38:32.129Z,9.719548
2022-08-27T07:39:32.150Z,9.719524
2022-08-27T07:40:32.131Z,9.719582
2022-08-27T07:41:32.246Z,9.719580
2022-08-27T07:42:32.069Z,9.719573
2022-08-27T07:43:32.064Z,9.719512
2022-08-27T07:44:34.512Z,9.719545
2022-08-27T07:45:32.039Z,9.719604
2022-08-27T07:46:32.029Z,9.719695
2022-08-27T07:47:32.027Z,9.719643
2022-08-27T07:48:32.009Z,9.719693
2022-08-27T07:49:32.014Z,9.719600
2022-08-27T07:50:32.064Z,9.719590
2022-08-27T07:51:31.983Z,9.719531
2022-08-27T07:52:31.972Z,9.719582
2022-08-27T07:53:31.961Z,9.719645
2022-08-27T07:54:31.964Z,9.719584
2022-08-27T07:55:31.944Z,9.719538
2022-08-27T07:56:31.924Z,9.719576
2022-08-27T07:57:31.979Z,9.719550
2022-08-27T07:58:31.909Z,9.719521
2022-08-27T07:59:31.926Z,9.719628
2022-08-27T08:00:31.898Z,9.719492
2022-08-27T08:01:31.950Z,9.719562
2022-08-27T08:02:32.099Z,9.719534
2022-08-27T08:03:31.868Z,9.719501
2022-08-27T08:04:31.866Z,9.719581
2022-08-27T08:05:31.853Z,9.719635
2022-08-27T08:06:31.833Z,9.719556
2022-08-27T08:07:31.829Z,9.719549
2022-08-27T08:08:31.826Z,9.719606
2022-08-27T08:09:31.824Z,9.719541
2022-08-27T08:10:35.399Z,9.719543
2022-08-27T08:11:31.792Z,9.719534
2022-08-27T08:12:31.780Z,9.719582
2022-08-27T08:13:31.774Z,9.719553
2022-08-27T08:14:31.775Z,9.719654
2022-08-27T08:15:31.752Z,9.719617
2022-08-27T08:16:31.964Z,9.719624
2022-08-27T08:17:31.765Z,9.719563
2022-08-27T08:18:31.720Z,9.719634
2022-08-27T08:19:32.120Z,9.719704
2022-08-27T08:20:56.465Z,9.719604
2022-08-27T08:21:32.693Z,9.719642
2022-08-27T08:22:31.679Z,9.719629
2022-08-27T08:23:31.677Z,9.719597
2022-08-27T08:24:31.677Z,9.719605
2022-08-27T08:25:35.511Z,9.719574
2022-08-27T08:26:32.646Z,9.719535
2022-08-27T08:27:31.641Z,9.719553
2022-08-27T08:28:31.623Z,9.719551
2022-08-27T08:29:31.628Z,9.719578
2022-08-27T08:30:35.547Z,9.719523
2022-08-27T08:31:31.592Z,9.719614
2022-08-27T08:32:31.584Z,9.719639
2022-08-27T08:33:31.656Z,9.719616
2022-08-27T08:34:31.576Z,9.719573
2022-08-27T08:35:33.672Z,9.719572
2022-08-27T08:36:31.543Z,9.719538
2022-08-27T08:37:31.590Z,9.719590
2022-08-27T08:38:31.526Z,9.719565
2022-08-27T08:39:31.536Z,9.719547
2022-08-27T08:40:31.541Z,9.719606
2022-08-27T08:41:31.497Z,9.719573
2022-08-27T08:42:31.490Z,9.719637
2022-08-27T08:43:31.481Z,9.719570
2022-08-27T08:44:31.488Z,9.719560
2022-08-27T08:45:31.461Z,9.719553
2022-08-27T08:46:31.492Z,9.719559
2022-08-27T08:47:31.446Z,9.719580
2022-08-27T08:48:31.424Z,9.719527
2022-08-27T08:49:31.420Z,9.719529
2022-08-27T08:50:31.504Z,9.719574
2022-08-27T08:51:31.405Z,9.719553
2022-08-27T08:52:32.067Z,9.719630
2022-08-27T08:53:31.385Z,9.719554
2022-08-27T08:54:31.371Z,9.719569
2022-08-27T08:55:31.383Z,9.719581
2022-08-27T08:56:31.352Z,9.719609
2022-08-27T08:57:31.351Z,9.719553
2022-08-27T08:58:31.333Z,9.719622
2022-08-27T08:59:31.334Z,9.719631
2022-08-27T09:00:31.330Z,9.719690
2022-08-27T09:01:31.391Z,9.719657
2022-08-27T09:02:31.297Z,9.719622
2022-08-27T09:03:31.345Z,9.719622
2022-08-27T09:04:31.280Z,9.719655
2022-08-27T09:05:31.291Z,9.719663
2022-08-27T09:06:31.260Z,9.719604
2022-08-27T09:07:31.256Z,9.719597
2022-08-27T09:08:36.424Z,9.719605
2022-08-27T09:09:32.233Z,9.719579
2022-08-27T09:10:31.237Z,9.719613
2022-08-27T09:11:31.210Z,9.719649
2022-08-27T09:12:32.047Z,9.719550
2022-08-27T09:13:31.195Z,9.719561
2022-08-27T09:14:31.192Z,9.719663
2022-08-27T09:15:31.193Z,9.719697
2022-08-27T09:16:31.252Z,9.719706
2022-08-27T09:17:31.158Z,9.719606
2022-08-27T09:18:31.149Z,9.719567
2022-08-27T09:19:31.140Z,9.719564
2022-08-27T09:20:31.164Z,9.719544
2022-08-27T09:21:31.129Z,9.719535
2022-08-27T09:22:31.165Z,9.719563
2022-08-27T09:23:31.103Z,9.719587
2022-08-27T09:24:31.166Z,9.719588
2022-08-27T09:25:31.273Z,9.719588
2022-08-27T09:26:31.081Z,9.719584
2022-08-27T09:27:31.138Z,9.719571
2022-08-27T09:28:31.068Z,9.719604
2022-08-27T09:29:31.041Z,9.719570
2022-08-27T09:30:31.165Z,9.719575
2022-08-27T09:31:31.026Z,9.719621
2022-08-27T09:32:31.017Z,9.719652
2022-08-27T09:33:44.501Z,9.719657
2022-08-27T09:34:32.009Z,9.719639
2022-08-27T09:35:31.001Z,9.719634
2022-08-27T09:36:31.017Z,9.719570
2022-08-27T09:37:34.192Z,9.719600
2022-08-27T09:38:33.600Z,9.719488
2022-08-27T09:39:30.946Z,9.719500
2022-08-27T09:40:30.992Z,9.719524
2022-08-27T09:41:30.929Z,9.719460
2022-08-27T09:42:30.918Z,9.719449
2022-08-27T09:43:30.971Z,9.719588
2022-08-27T09:44:30.900Z,9.719579
2022-08-27T09:45:30.974Z,9.719632
2022-08-27T09:46:30.887Z,9.719543
2022-08-27T09:47:30.867Z,9.719664
2022-08-27T09:48:30.858Z,9.719699
2022-08-27T09:49:30.837Z,9.719550
2022-08-27T09:50:30.849Z,9.719548
2022-08-27T09:51:30.826Z,9.719626
2022-08-27T09:52:30.819Z,9.719525
2022-08-27T09:53:30.802Z,9.719573
2022-08-27T09:54:30.803Z,9.719643
2022-08-27T09:55:30.804Z,9.719613
2022-08-27T09:56:30.782Z,9.719621
2022-08-27T09:57:30.876Z,9.719631
2022-08-27T09:58:30.760Z,9.719633
2022-08-27T09:59:30.779Z,9.719618
2022-08-27T10:00:30.758Z,9.719586
2022-08-27T10:01:30.825Z,9.719591
2022-08-27T10:02:30.718Z,9.719625
2022-08-27T10:03:33.453Z,9.719630
2022-08-27T10:04:30.787Z,9.719675
2022-08-27T10:05:30.702Z,9.719681
2022-08-27T10:06:30.681Z,9.719688
2022-08-27T10:07:30.666Z,9.719685
2022-08-27T10:08:30.667Z,9.719681
2022-08-27T10:09:30.646Z,9.719697
2022-08-27T10:10:30.704Z,9.719701
2022-08-27T10:11:30.631Z,9.719746
2022-08-27T10:12:30.623Z,9.719646
2022-08-27T10:13:30.618Z,9.719668
2022-08-27T10:14:30.610Z,9.719699
2022-08-27T10:15:30.597Z,9.719679
2022-08-27T10:16:31.660Z,9.719687
2022-08-27T10:17:30.573Z,9.719719
2022-08-27T10:18:30.559Z,9.719705
2022-08-27T10:19:30.549Z,9.719706
2022-08-27T10:20:31.005Z,9.719694
2022-08-27T10:21:30.569Z,9.719656
2022-08-27T10:22:30.540Z,9.719686
2022-08-27T10:23:30.510Z,9.719672
2022-08-27T10:24:30.525Z,9.719681
2022-08-27T10:25:30.492Z,9.719695
2022-08-27T10:26:33.713Z,9.719696
2022-08-27T10:27:30.478Z,9.719681
2022-08-27T10:28:30.469Z,9.719717
2022-08-27T10:29:30.449Z,9.719707
2022-08-27T10:30:31.957Z,9.719695
2022-08-27T10:31:30.507Z,9.719689
2022-08-27T10:32:30.442Z,9.719707
2022-08-27T10:33:30.412Z,9.719715
2022-08-27T10:34:30.406Z,9.719722
2022-08-27T10:35:30.397Z,9.719687
2022-08-27T10:36:30.400Z,9.719677
2022-08-27T10:37:36.603Z,9.719665
2022-08-27T10:38:31.372Z,9.719642
2022-08-27T10:39:30.393Z,9.719607
2022-08-27T10:40:30.393Z,9.719616
2022-08-27T10:41:30.342Z,9.719630
2022-08-27T10:42:30.324Z,9.719611
2022-08-27T10:43:30.322Z,9.719635
2022-08-27T10:44:30.302Z,9.719672
2022-08-27T10:45:31.433Z,9.719707
2022-08-27T10:46:30.382Z,9.719735
2022-08-27T10:47:30.281Z,9.719736
2022-08-27T10:48:30.268Z,9.719746
2022-08-27T10:49:30.254Z,9.719657
2022-08-27T10:50:30.247Z,9.719677
2022-08-27T10:51:30.303Z,9.719687
2022-08-27T10:52:30.379Z,9.719697
2022-08-27T10:53:30.388Z,9.719658
2022-08-27T10:54:30.365Z,9.719644
2022-08-27T10:55:30.339Z,9.719658
2022-08-27T10:56:30.339Z,9.719572
2022-08-27T10:57:51.663Z,9.719542
2022-08-27T10:58:31.229Z,9.719611
2022-08-27T10:59:30.366Z,9.719638
2022-08-27T11:00:30.240Z,9.719636
2022-08-27T11:01:30.259Z,9.719622
2022-08-27T11:02:30.258Z,9.719663
2022-08-27T11:03:33.342Z,9.719645
2022-08-27T11:04:30.177Z,9.719651
2022-08-27T11:05:30.156Z,9.719630
2022-08-27T11:06:30.163Z,9.719627
2022-08-27T11:07:30.074Z,9.719639
2022-08-27T11:08:30.068Z,9.719667
2022-08-27T11:09:30.063Z,9.719650
2022-08-27T11:10:30.071Z,9.719662
2022-08-27T11:12:12.353Z,9.719667
2022-08-27T11:12:31.032Z,9.719688
2022-08-27T11:13:30.015Z,9.719707
2022-08-27T11:14:30.008Z,9.719683
2022-08-27T11:15:29.998Z,9.719656
2022-08-27T11:16:30.029Z,9.719649
2022-08-27T11:17:32.208Z,9.719659
2022-08-27T11:18:29.995Z,9.719658
2022-08-27T11:19:29.961Z,9.719658
2022-08-27T11:20:29.954Z,9.719646
2022-08-27T11:21:29.954Z,9.719650
2022-08-27T11:22:29.931Z,9.719639
2022-08-27T11:23:29.927Z,9.719646
2022-08-27T11:24:34.379Z,9.719644
2022-08-27T11:25:30.895Z,9.719650
2022-08-27T11:26:29.994Z,9.719662
2022-08-27T11:27:29.879Z,9.719656
2022-08-27T11:28:30.418Z,9.719649
2022-08-27T11:29:30.583Z,9.719692
2022-08-27T11:30:29.883Z,9.719668
2022-08-27T11:31:29.924Z,9.719656
2022-08-27T11:32:29.841Z,9.719635
2022-08-27T11:33:29.823Z,9.719653
2022-08-27T11:34:29.864Z,9.719665
2022-08-27T11:35:29.834Z,9.719648
2022-08-27T11:36:29.819Z,9.719667
2022-08-27T11:37:29.789Z,9.719651
2022-08-27T11:38:29.777Z,9.719649
2022-08-27T11:39:29.767Z,9.719637
2022-08-27T11:40:29.796Z,9.719638
2022-08-27T11:41:29.765Z,9.719626
2022-08-27T11:42:30.743Z,9.719629
2022-08-27T11:43:29.732Z,9.719639
2022-08-27T11:44:29.719Z,9.719670